sensor_id;sensor_type;location;lat;lon;timestamp;temperature;humidity
9537;DHT22;4807;48.024;11.726;2023-06-10T00:00:10;12.50;99.90
9537;DHT22;4807;48.024;11.726;2023-06-10T00:03:20;12.30;99.90
9537;DHT22;4807;48.024;11.726;2023-06-10T00:06:30;12.20;99.90
9537;DHT22;4807;48.024;11.726;2023-06-10T00:09:42;12.20;99.90
9537;DHT22;4807;48.024;11.726;2023-06-10T00:12:50;12.20;99.90
9537;DHT22;4807;48.024;11.726;2023-06-10T00:16:00;12.10;99.90
9537;DHT22;4807;48.024;11.726;2023-06-10T00:19:10;12.20;99.90
9537;DHT22;4807;48.024;11.726;2023-06-10T00:22:21;12.20;99.90
9537;DHT22;4807;48.024;11.726;2023-06-10T00:25:31;12.50;99.90
9537;DHT22;4807;48.024;11.726;2023-06-10T00:28:40;12.50;99.90
9537;DHT22;4807;48.024;11.726;2023-06-10T00:31:50;12.30;99.90
9537;DHT22;4807;48.024;11.726;2023-06-10T00:35:00;12.00;99.90
9537;DHT22;4807;48.024;11.726;2023-06-10T00:38:11;11.90;99.90
9537;DHT22;4807;48.024;11.726;2023-06-10T00:41:24;11.80;99.90
9537;DHT22;4807;48.024;11.726;2023-06-10T00:44:34;11.80;99.90
9537;DHT22;4807;48.024;11.726;2023-06-10T00:47:44;11.80;99.90
9537;DHT22;4807;48.024;11.726;2023-06-10T00:50:53;11.80;99.90
9537;DHT22;4807;48.024;11.726;2023-06-10T00:54:02;11.80;99.90
9537;DHT22;4807;48.024;11.726;2023-06-10T00:57:12;11.80;99.90
9537;DHT22;4807;48.024;11.726;2023-06-10T01:00:21;11.90;99.90
9537;DHT22;4807;48.024;11.726;2023-06-10T01:03:31;12.00;99.90
9537;DHT22;4807;48.024;11.726;2023-06-10T01:06:49;12.00;99.90
9537;DHT22;4807;48.024;11.726;2023-06-10T01:10:10;12.00;99.90
9537;DHT22;4807;48.024;11.726;2023-06-10T01:13:24;12.00;99.90
9537;DHT22;4807;48.024;11.726;2023-06-10T01:16:37;11.70;99.90
9537;DHT22;4807;48.024;11.726;2023-06-10T01:19:54;11.50;99.90
9537;DHT22;4807;48.024;11.726;2023-06-10T01:23:05;11.50;99.90
9537;DHT22;4807;48.024;11.726;2023-06-10T01:26:16;11.60;99.90
9537;DHT22;4807;48.024;11.726;2023-06-10T01:29:30;11.70;99.90
9537;DHT22;4807;48.024;11.726;2023-06-10T01:32:45;11.50;99.90
9537;DHT22;4807;48.024;11.726;2023-06-10T01:35:58;11.40;99.90
9537;DHT22;4807;48.024;11.726;2023-06-10T01:39:11;11.20;99.90
9537;DHT22;4807;48.024;11.726;2023-06-10T01:42:21;11.10;99.90
9537;DHT22;4807;48.024;11.726;2023-06-10T01:45:30;11.20;99.90
9537;DHT22;4807;48.024;11.726;2023-06-10T01:48:39;11.20;99.90
9537;DHT22;4807;48.024;11.726;2023-06-10T01:51:48;11.10;99.90
9537;DHT22;4807;48.024;11.726;2023-06-10T01:54:58;11.10;99.90
9537;DHT22;4807;48.024;11.726;2023-06-10T01:58:07;11.00;99.90
9537;DHT22;4807;48.024;11.726;2023-06-10T02:01:16;11.00;99.90
9537;DHT22;4807;48.024;11.726;2023-06-10T02:04:24;11.00;99.90
9537;DHT22;4807;48.024;11.726;2023-06-10T02:07:33;11.10;99.90
9537;DHT22;4807;48.024;11.726;2023-06-10T02:10:43;11.10;99.90
9537;DHT22;4807;48.024;11.726;2023-06-10T02:13:52;11.00;99.90
9537;DHT22;4807;48.024;11.726;2023-06-10T02:17:01;11.00;99.90
9537;DHT22;4807;48.024;11.726;2023-06-10T02:20:11;11.10;99.90
9537;DHT22;4807;48.024;11.726;2023-06-10T02:23:20;11.10;99.90
9537;DHT22;4807;48.024;11.726;2023-06-10T02:26:30;11.20;99.90
9537;DHT22;4807;48.024;11.726;2023-06-10T02:29:40;11.30;99.90
9537;DHT22;4807;48.024;11.726;2023-06-10T02:32:49;11.10;99.90
9537;DHT22;4807;48.024;11.726;2023-06-10T02:35:59;10.80;99.90
9537;DHT22;4807;48.024;11.726;2023-06-10T02:39:08;10.60;99.90
9537;DHT22;4807;48.024;11.726;2023-06-10T02:42:18;10.50;99.90
9537;DHT22;4807;48.024;11.726;2023-06-10T02:45:27;10.40;99.90
9537;DHT22;4807;48.024;11.726;2023-06-10T02:48:42;10.40;99.90
9537;DHT22;4807;48.024;11.726;2023-06-10T02:51:54;10.40;99.90
9537;DHT22;4807;48.024;11.726;2023-06-10T02:55:04;10.60;99.90
9537;DHT22;4807;48.024;11.726;2023-06-10T02:58:15;10.90;99.90
9537;DHT22;4807;48.024;11.726;2023-06-10T03:01:26;10.70;99.90
9537;DHT22;4807;48.024;11.726;2023-06-10T03:04:41;10.60;99.90
9537;DHT22;4807;48.024;11.726;2023-06-10T03:07:54;10.50;99.90
9537;DHT22;4807;48.024;11.726;2023-06-10T03:11:03;10.50;99.90
9537;DHT22;4807;48.024;11.726;2023-06-10T03:14:15;10.50;99.90
9537;DHT22;4807;48.024;11.726;2023-06-10T03:17:23;10.50;99.90
9537;DHT22;4807;48.024;11.726;2023-06-10T03:20:32;10.50;99.90
9537;DHT22;4807;48.024;11.726;2023-06-10T03:23:47;10.60;99.90
9537;DHT22;4807;48.024;11.726;2023-06-10T03:26:58;10.50;99.90
9537;DHT22;4807;48.024;11.726;2023-06-10T03:30:10;10.60;99.90
9537;DHT22;4807;48.024;11.726;2023-06-10T03:33:21;10.60;99.90
9537;DHT22;4807;48.024;11.726;2023-06-10T03:36:30;10.50;99.90
9537;DHT22;4807;48.024;11.726;2023-06-10T03:39:38;10.50;99.90
9537;DHT22;4807;48.024;11.726;2023-06-10T03:42:49;10.70;99.90
9537;DHT22;4807;48.024;11.726;2023-06-10T03:46:03;10.60;99.90
9537;DHT22;4807;48.024;11.726;2023-06-10T03:49:13;10.50;99.90
9537;DHT22;4807;48.024;11.726;2023-06-10T03:52:22;10.70;99.90
9537;DHT22;4807;48.024;11.726;2023-06-10T03:55:32;10.90;99.90
9537;DHT22;4807;48.024;11.726;2023-06-10T03:58:41;10.80;99.90
9537;DHT22;4807;48.024;11.726;2023-06-10T04:01:55;10.90;99.90
9537;DHT22;4807;48.024;11.726;2023-06-10T04:05:04;11.10;99.90
9537;DHT22;4807;48.024;11.726;2023-06-10T04:08:13;11.00;99.90
9537;DHT22;4807;48.024;11.726;2023-06-10T04:11:25;10.80;99.90
9537;DHT22;4807;48.024;11.726;2023-06-10T04:14:35;10.80;99.90
9537;DHT22;4807;48.024;11.726;2023-06-10T04:17:49;10.80;99.90
9537;DHT22;4807;48.024;11.726;2023-06-10T04:21:04;10.80;99.90
9537;DHT22;4807;48.024;11.726;2023-06-10T04:24:14;11.20;99.90
9537;DHT22;4807;48.024;11.726;2023-06-10T04:27:26;11.40;99.90
9537;DHT22;4807;48.024;11.726;2023-06-10T04:30:35;11.60;99.90
9537;DHT22;4807;48.024;11.726;2023-06-10T04:33:46;11.60;99.90
9537;DHT22;4807;48.024;11.726;2023-06-10T04:36:55;11.80;99.90
9537;DHT22;4807;48.024;11.726;2023-06-10T04:40:05;11.90;99.90
9537;DHT22;4807;48.024;11.726;2023-06-10T04:43:26;12.00;99.90
9537;DHT22;4807;48.024;11.726;2023-06-10T04:46:39;12.10;99.90
9537;DHT22;4807;48.024;11.726;2023-06-10T04:49:51;12.30;99.90
9537;DHT22;4807;48.024;11.726;2023-06-10T04:52:59;12.40;99.90
9537;DHT22;4807;48.024;11.726;2023-06-10T04:56:09;12.60;99.90
9537;DHT22;4807;48.024;11.726;2023-06-10T04:59:18;12.90;99.90
9537;DHT22;4807;48.024;11.726;2023-06-10T05:02:26;13.10;99.90
9537;DHT22;4807;48.024;11.726;2023-06-10T05:05:36;13.30;99.90
9537;DHT22;4807;48.024;11.726;2023-06-10T05:08:44;13.50;99.90
9537;DHT22;4807;48.024;11.726;2023-06-10T05:11:52;13.70;99.90
9537;DHT22;4807;48.024;11.726;2023-06-10T05:15:02;13.90;99.90
9537;DHT22;4807;48.024;11.726;2023-06-10T05:18:11;14.00;99.90
9537;DHT22;4807;48.024;11.726;2023-06-10T05:21:22;14.10;99.90
9537;DHT22;4807;48.024;11.726;2023-06-10T05:24:31;14.30;99.90
9537;DHT22;4807;48.024;11.726;2023-06-10T05:27:42;14.40;99.90
9537;DHT22;4807;48.024;11.726;2023-06-10T05:30:51;14.60;99.90
9537;DHT22;4807;48.024;11.726;2023-06-10T05:34:01;14.70;99.90
9537;DHT22;4807;48.024;11.726;2023-06-10T05:37:14;14.90;99.90
9537;DHT22;4807;48.024;11.726;2023-06-10T05:40:24;14.90;99.90
9537;DHT22;4807;48.024;11.726;2023-06-10T05:43:33;15.10;99.90
9537;DHT22;4807;48.024;11.726;2023-06-10T05:46:42;15.30;99.90
9537;DHT22;4807;48.024;11.726;2023-06-10T05:49:50;15.40;99.90
9537;DHT22;4807;48.024;11.726;2023-06-10T05:53:01;15.70;99.90
9537;DHT22;4807;48.024;11.726;2023-06-10T05:56:10;15.80;99.90
9537;DHT22;4807;48.024;11.726;2023-06-10T05:59:18;16.00;99.90
9537;DHT22;4807;48.024;11.726;2023-06-10T06:02:27;16.20;99.90
9537;DHT22;4807;48.024;11.726;2023-06-10T06:05:36;16.40;99.90
9537;DHT22;4807;48.024;11.726;2023-06-10T06:08:47;16.60;99.90
9537;DHT22;4807;48.024;11.726;2023-06-10T06:11:55;16.70;99.90
9537;DHT22;4807;48.024;11.726;2023-06-10T06:15:04;16.90;99.90
9537;DHT22;4807;48.024;11.726;2023-06-10T06:18:15;17.00;99.90
9537;DHT22;4807;48.024;11.726;2023-06-10T06:21:25;18.00;99.90
9537;DHT22;4807;48.024;11.726;2023-06-10T06:24:35;20.80;99.90
9537;DHT22;4807;48.024;11.726;2023-06-10T06:27:43;23.20;94.40
9537;DHT22;4807;48.024;11.726;2023-06-10T06:30:52;24.40;90.30
9537;DHT22;4807;48.024;11.726;2023-06-10T06:34:00;24.90;87.50
9537;DHT22;4807;48.024;11.726;2023-06-10T06:37:09;24.70;86.50
9537;DHT22;4807;48.024;11.726;2023-06-10T06:40:22;23.80;90.00
9537;DHT22;4807;48.024;11.726;2023-06-10T06:43:30;24.50;87.50
9537;DHT22;4807;48.024;11.726;2023-06-10T06:46:57;24.70;88.80
9537;DHT22;4807;48.024;11.726;2023-06-10T06:50:06;26.20;81.90
9537;DHT22;4807;48.024;11.726;2023-06-10T06:53:15;27.40;77.20
9537;DHT22;4807;48.024;11.726;2023-06-10T06:56:25;27.40;76.20
9537;DHT22;4807;48.024;11.726;2023-06-10T06:59:35;26.30;77.80
9537;DHT22;4807;48.024;11.726;2023-06-10T07:02:43;26.60;77.70
9537;DHT22;4807;48.024;11.726;2023-06-10T07:05:52;26.90;76.90
9537;DHT22;4807;48.024;11.726;2023-06-10T07:09:00;27.60;73.60
9537;DHT22;4807;48.024;11.726;2023-06-10T07:12:11;27.00;74.30
9537;DHT22;4807;48.024;11.726;2023-06-10T07:15:19;27.10;75.60
9537;DHT22;4807;48.024;11.726;2023-06-10T07:18:28;27.20;75.10
9537;DHT22;4807;48.024;11.726;2023-06-10T07:21:36;28.10;72.00
9537;DHT22;4807;48.024;11.726;2023-06-10T07:24:45;29.40;69.10
9537;DHT22;4807;48.024;11.726;2023-06-10T07:27:55;29.50;66.30
9537;DHT22;4807;48.024;11.726;2023-06-10T07:31:03;29.10;64.20
9537;DHT22;4807;48.024;11.726;2023-06-10T07:34:12;27.40;68.90
9537;DHT22;4807;48.024;11.726;2023-06-10T07:37:20;28.30;67.20
9537;DHT22;4807;48.024;11.726;2023-06-10T07:40:28;29.20;65.20
9537;DHT22;4807;48.024;11.726;2023-06-10T07:43:42;29.80;63.10
9537;DHT22;4807;48.024;11.726;2023-06-10T07:46:50;30.20;63.20
9537;DHT22;4807;48.024;11.726;2023-06-10T07:49:59;31.10;58.80
9537;DHT22;4807;48.024;11.726;2023-06-10T07:53:07;30.50;60.10
9537;DHT22;4807;48.024;11.726;2023-06-10T07:56:16;29.40;61.00
9537;DHT22;4807;48.024;11.726;2023-06-10T07:59:25;28.70;62.00
9537;DHT22;4807;48.024;11.726;2023-06-10T08:02:34;28.70;65.10
9537;DHT22;4807;48.024;11.726;2023-06-10T08:05:43;29.00;61.00
9537;DHT22;4807;48.024;11.726;2023-06-10T08:08:52;29.30;61.80
9537;DHT22;4807;48.024;11.726;2023-06-10T08:12:01;28.70;61.80
9537;DHT22;4807;48.024;11.726;2023-06-10T08:15:12;27.80;65.20
9537;DHT22;4807;48.024;11.726;2023-06-10T08:18:20;27.20;66.10
9537;DHT22;4807;48.024;11.726;2023-06-10T08:21:29;26.10;69.40
9537;DHT22;4807;48.024;11.726;2023-06-10T08:24:39;25.60;72.20
9537;DHT22;4807;48.024;11.726;2023-06-10T08:27:48;26.70;70.60
9537;DHT22;4807;48.024;11.726;2023-06-10T08:30:58;28.20;64.50
9537;DHT22;4807;48.024;11.726;2023-06-10T08:34:07;28.20;64.50
9537;DHT22;4807;48.024;11.726;2023-06-10T08:37:15;28.70;63.70
9537;DHT22;4807;48.024;11.726;2023-06-10T08:40:23;28.00;64.30
9537;DHT22;4807;48.024;11.726;2023-06-10T08:43:37;27.90;63.80
9537;DHT22;4807;48.024;11.726;2023-06-10T08:46:52;27.20;66.00
9537;DHT22;4807;48.024;11.726;2023-06-10T08:50:06;25.60;70.20
9537;DHT22;4807;48.024;11.726;2023-06-10T08:53:18;24.40;73.90
9537;DHT22;4807;48.024;11.726;2023-06-10T08:56:28;23.50;75.70
9537;DHT22;4807;48.024;11.726;2023-06-10T08:59:38;23.20;76.70
9537;DHT22;4807;48.024;11.726;2023-06-10T09:02:50;24.10;72.70
9537;DHT22;4807;48.024;11.726;2023-06-10T09:05:59;23.70;72.80
9537;DHT22;4807;48.024;11.726;2023-06-10T09:09:08;23.40;74.10
9537;DHT22;4807;48.024;11.726;2023-06-10T09:18:35;26.80;66.00
9537;DHT22;4807;48.024;11.726;2023-06-10T09:21:44;27.10;65.80
9537;DHT22;4807;48.024;11.726;2023-06-10T09:25:02;27.40;64.40
9537;DHT22;4807;48.024;11.726;2023-06-10T09:28:15;28.40;61.30
9537;DHT22;4807;48.024;11.726;2023-06-10T09:31:24;27.80;60.80
9537;DHT22;4807;48.024;11.726;2023-06-10T09:34:33;28.10;65.10
9537;DHT22;4807;48.024;11.726;2023-06-10T09:37:44;28.80;61.00
9537;DHT22;4807;48.024;11.726;2023-06-10T09:40:54;28.10;61.00
9537;DHT22;4807;48.024;11.726;2023-06-10T09:44:11;26.30;64.40
9537;DHT22;4807;48.024;11.726;2023-06-10T09:47:21;25.20;68.30
9537;DHT22;4807;48.024;11.726;2023-06-10T09:50:34;24.40;71.10
9537;DHT22;4807;48.024;11.726;2023-06-10T09:53:49;23.90;72.60
9537;DHT22;4807;48.024;11.726;2023-06-10T09:56:59;23.90;72.40
9537;DHT22;4807;48.024;11.726;2023-06-10T10:00:16;23.80;72.70
9537;DHT22;4807;48.024;11.726;2023-06-10T10:03:25;24.00;73.30
9537;DHT22;4807;48.024;11.726;2023-06-10T10:06:35;23.80;73.90
9537;DHT22;4807;48.024;11.726;2023-06-10T10:09:44;23.80;74.20
9537;DHT22;4807;48.024;11.726;2023-06-10T10:12:54;23.80;74.40
9537;DHT22;4807;48.024;11.726;2023-06-10T10:16:09;23.70;75.00
9537;DHT22;4807;48.024;11.726;2023-06-10T10:19:23;23.50;74.50
9537;DHT22;4807;48.024;11.726;2023-06-10T10:22:39;23.30;75.50
9537;DHT22;4807;48.024;11.726;2023-06-10T10:25:51;23.50;75.00
9537;DHT22;4807;48.024;11.726;2023-06-10T10:29:09;23.50;73.80
9537;DHT22;4807;48.024;11.726;2023-06-10T10:32:29;23.40;75.20
9537;DHT22;4807;48.024;11.726;2023-06-10T10:35:41;23.40;75.10
9537;DHT22;4807;48.024;11.726;2023-06-10T10:38:52;23.40;75.30
9537;DHT22;4807;48.024;11.726;2023-06-10T10:42:01;23.20;75.40
9537;DHT22;4807;48.024;11.726;2023-06-10T10:45:11;23.00;76.10
9537;DHT22;4807;48.024;11.726;2023-06-10T10:48:20;22.90;75.40
9537;DHT22;4807;48.024;11.726;2023-06-10T10:51:34;23.30;78.70
9537;DHT22;4807;48.024;11.726;2023-06-10T10:54:45;24.00;73.90
9537;DHT22;4807;48.024;11.726;2023-06-10T10:57:57;24.30;73.60
9537;DHT22;4807;48.024;11.726;2023-06-10T11:01:12;24.50;71.90
9537;DHT22;4807;48.024;11.726;2023-06-10T11:04:22;24.40;70.30
9537;DHT22;4807;48.024;11.726;2023-06-10T11:07:35;23.70;73.30
9537;DHT22;4807;48.024;11.726;2023-06-10T11:10:52;23.70;72.90
9537;DHT22;4807;48.024;11.726;2023-06-10T11:14:07;24.00;72.50
9537;DHT22;4807;48.024;11.726;2023-06-10T11:17:19;24.60;71.40
9537;DHT22;4807;48.024;11.726;2023-06-10T11:20:43;24.80;69.10
9537;DHT22;4807;48.024;11.726;2023-06-10T11:24:11;25.00;68.20
9537;DHT22;4807;48.024;11.726;2023-06-10T11:27:23;24.70;68.10
9537;DHT22;4807;48.024;11.726;2023-06-10T11:30:35;24.50;70.10
9537;DHT22;4807;48.024;11.726;2023-06-10T11:33:43;24.40;70.50
9537;DHT22;4807;48.024;11.726;2023-06-10T11:36:52;24.10;71.60
9537;DHT22;4807;48.024;11.726;2023-06-10T11:40:02;23.80;71.00
9537;DHT22;4807;48.024;11.726;2023-06-10T11:43:12;23.80;71.40
9537;DHT22;4807;48.024;11.726;2023-06-10T11:46:20;23.70;71.70
9537;DHT22;4807;48.024;11.726;2023-06-10T11:49:29;23.70;71.10
9537;DHT22;4807;48.024;11.726;2023-06-10T11:52:38;23.50;69.00
9537;DHT22;4807;48.024;11.726;2023-06-10T11:55:50;23.40;69.20
9537;DHT22;4807;48.024;11.726;2023-06-10T11:59:01;23.40;68.60
9537;DHT22;4807;48.024;11.726;2023-06-10T12:02:15;23.60;68.00
9537;DHT22;4807;48.024;11.726;2023-06-10T12:09:40;24.10;68.40
9537;DHT22;4807;48.024;11.726;2023-06-10T12:12:49;24.20;69.90
9537;DHT22;4807;48.024;11.726;2023-06-10T12:16:07;24.60;67.40
9537;DHT22;4807;48.024;11.726;2023-06-10T12:19:16;24.90;67.00
9537;DHT22;4807;48.024;11.726;2023-06-10T12:22:25;25.10;65.90
9537;DHT22;4807;48.024;11.726;2023-06-10T12:25:33;25.20;65.20
9537;DHT22;4807;48.024;11.726;2023-06-10T12:28:50;25.20;64.90
9537;DHT22;4807;48.024;11.726;2023-06-10T12:32:02;25.40;67.20
9537;DHT22;4807;48.024;11.726;2023-06-10T12:35:17;25.90;64.40
9537;DHT22;4807;48.024;11.726;2023-06-10T12:38:27;26.00;64.00
9537;DHT22;4807;48.024;11.726;2023-06-10T12:41:37;26.00;64.50
9537;DHT22;4807;48.024;11.726;2023-06-10T12:44:45;25.80;64.70
9537;DHT22;4807;48.024;11.726;2023-06-10T12:48:04;25.80;66.30
9537;DHT22;4807;48.024;11.726;2023-06-10T12:51:13;25.60;68.20
9537;DHT22;4807;48.024;11.726;2023-06-10T12:57:31;25.10;68.90
9537;DHT22;4807;48.024;11.726;2023-06-10T13:00:39;25.40;71.60
9537;DHT22;4807;48.024;11.726;2023-06-10T13:03:49;25.70;70.20
9537;DHT22;4807;48.024;11.726;2023-06-10T13:06:57;25.60;70.90
9537;DHT22;4807;48.024;11.726;2023-06-10T13:10:06;25.60;71.90
9537;DHT22;4807;48.024;11.726;2023-06-10T13:13:15;25.40;72.60
9537;DHT22;4807;48.024;11.726;2023-06-10T13:16:24;25.10;74.30
9537;DHT22;4807;48.024;11.726;2023-06-10T13:19:35;25.00;74.30
9537;DHT22;4807;48.024;11.726;2023-06-10T13:22:43;24.80;74.40
9537;DHT22;4807;48.024;11.726;2023-06-10T13:25:52;24.40;75.50
9537;DHT22;4807;48.024;11.726;2023-06-10T13:29:00;24.70;75.90
9537;DHT22;4807;48.024;11.726;2023-06-10T13:32:09;24.70;72.90
9537;DHT22;4807;48.024;11.726;2023-06-10T13:35:20;24.50;73.40
9537;DHT22;4807;48.024;11.726;2023-06-10T13:38:28;24.30;75.60
9537;DHT22;4807;48.024;11.726;2023-06-10T13:41:37;24.10;74.40
9537;DHT22;4807;48.024;11.726;2023-06-10T13:44:46;23.90;74.40
9537;DHT22;4807;48.024;11.726;2023-06-10T13:47:55;24.10;75.70
9537;DHT22;4807;48.024;11.726;2023-06-10T13:51:05;24.40;74.30
9537;DHT22;4807;48.024;11.726;2023-06-10T13:54:15;24.80;73.20
9537;DHT22;4807;48.024;11.726;2023-06-10T13:57:24;25.40;71.30
9537;DHT22;4807;48.024;11.726;2023-06-10T14:00:34;25.50;69.00
9537;DHT22;4807;48.024;11.726;2023-06-10T14:03:42;25.20;70.10
9537;DHT22;4807;48.024;11.726;2023-06-10T14:06:52;25.30;71.10
9537;DHT22;4807;48.024;11.726;2023-06-10T14:10:00;25.20;70.20
9537;DHT22;4807;48.024;11.726;2023-06-10T14:13:08;25.00;71.70
9537;DHT22;4807;48.024;11.726;2023-06-10T14:16:17;25.00;69.00
9537;DHT22;4807;48.024;11.726;2023-06-10T14:19:26;24.90;70.10
9537;DHT22;4807;48.024;11.726;2023-06-10T14:22:35;25.00;69.70
9537;DHT22;4807;48.024;11.726;2023-06-10T14:25:43;25.00;69.40
9537;DHT22;4807;48.024;11.726;2023-06-10T14:28:55;24.90;69.60
9537;DHT22;4807;48.024;11.726;2023-06-10T14:32:04;24.70;68.60
9537;DHT22;4807;48.024;11.726;2023-06-10T14:35:16;24.40;69.10
9537;DHT22;4807;48.024;11.726;2023-06-10T14:38:25;24.30;69.60
9537;DHT22;4807;48.024;11.726;2023-06-10T14:41:33;24.20;70.50
9537;DHT22;4807;48.024;11.726;2023-06-10T14:44:42;24.30;69.10
9537;DHT22;4807;48.024;11.726;2023-06-10T14:47:50;23.80;70.10
9537;DHT22;4807;48.024;11.726;2023-06-10T14:50:58;24.70;71.90
9537;DHT22;4807;48.024;11.726;2023-06-10T14:54:07;24.80;69.60
9537;DHT22;4807;48.024;11.726;2023-06-10T14:57:16;25.00;69.70
9537;DHT22;4807;48.024;11.726;2023-06-10T15:00:24;25.30;70.30
9537;DHT22;4807;48.024;11.726;2023-06-10T15:03:42;25.70;69.00
9537;DHT22;4807;48.024;11.726;2023-06-10T15:12:24;27.00;65.70
9537;DHT22;4807;48.024;11.726;2023-06-10T15:15:34;25.20;69.00
9537;DHT22;4807;48.024;11.726;2023-06-10T15:18:42;25.10;69.50
9537;DHT22;4807;48.024;11.726;2023-06-10T15:21:51;24.60;72.40
9537;DHT22;4807;48.024;11.726;2023-06-10T15:24:59;24.00;75.00
9537;DHT22;4807;48.024;11.726;2023-06-10T15:28:11;23.80;75.10
9537;DHT22;4807;48.024;11.726;2023-06-10T15:31:20;23.80;76.60
9537;DHT22;4807;48.024;11.726;2023-06-10T15:34:28;23.70;75.90
9537;DHT22;4807;48.024;11.726;2023-06-10T15:37:36;23.60;75.40
9537;DHT22;4807;48.024;11.726;2023-06-10T15:40:44;23.70;76.10
9537;DHT22;4807;48.024;11.726;2023-06-10T15:43:55;24.10;75.90
9537;DHT22;4807;48.024;11.726;2023-06-10T15:47:06;24.10;76.50
9537;DHT22;4807;48.024;11.726;2023-06-10T15:50:15;24.50;75.30
9537;DHT22;4807;48.024;11.726;2023-06-10T15:53:23;24.70;74.60
9537;DHT22;4807;48.024;11.726;2023-06-10T15:56:31;24.90;74.10
9537;DHT22;4807;48.024;11.726;2023-06-10T15:59:41;24.70;74.50
9537;DHT22;4807;48.024;11.726;2023-06-10T16:02:49;24.60;76.50
9537;DHT22;4807;48.024;11.726;2023-06-10T16:05:58;24.50;76.20
9537;DHT22;4807;48.024;11.726;2023-06-10T16:09:06;24.10;77.60
9537;DHT22;4807;48.024;11.726;2023-06-10T16:12:15;24.10;78.40
9537;DHT22;4807;48.024;11.726;2023-06-10T16:15:24;24.20;78.70
9537;DHT22;4807;48.024;11.726;2023-06-10T16:18:33;24.20;79.30
9537;DHT22;4807;48.024;11.726;2023-06-10T16:21:41;24.20;76.80
9537;DHT22;4807;48.024;11.726;2023-06-10T16:24:49;23.90;78.70
9537;DHT22;4807;48.024;11.726;2023-06-10T16:27:57;23.90;79.00
9537;DHT22;4807;48.024;11.726;2023-06-10T16:31:06;23.80;79.30
9537;DHT22;4807;48.024;11.726;2023-06-10T16:34:15;23.60;79.80
9537;DHT22;4807;48.024;11.726;2023-06-10T16:37:23;23.40;81.00
9537;DHT22;4807;48.024;11.726;2023-06-10T16:40:31;23.30;81.60
9537;DHT22;4807;48.024;11.726;2023-06-10T16:43:40;23.40;82.40
9537;DHT22;4807;48.024;11.726;2023-06-10T16:46:49;23.40;82.40
9537;DHT22;4807;48.024;11.726;2023-06-10T16:49:58;23.30;82.20
9537;DHT22;4807;48.024;11.726;2023-06-10T16:53:06;23.30;82.00
9537;DHT22;4807;48.024;11.726;2023-06-10T16:56:15;23.20;81.70
9537;DHT22;4807;48.024;11.726;2023-06-10T16:59:23;23.10;81.80
9537;DHT22;4807;48.024;11.726;2023-06-10T17:02:33;22.90;81.70
9537;DHT22;4807;48.024;11.726;2023-06-10T17:05:41;22.70;82.60
9537;DHT22;4807;48.024;11.726;2023-06-10T17:08:50;22.80;82.80
9537;DHT22;4807;48.024;11.726;2023-06-10T17:11:58;22.90;82.60
9537;DHT22;4807;48.024;11.726;2023-06-10T17:15:08;23.00;80.40
9537;DHT22;4807;48.024;11.726;2023-06-10T17:18:19;25.40;74.00
9537;DHT22;4807;48.024;11.726;2023-06-10T17:21:27;25.70;69.40
9537;DHT22;4807;48.024;11.726;2023-06-10T17:24:36;27.00;66.20
9537;DHT22;4807;48.024;11.726;2023-06-10T17:27:44;27.40;63.30
9537;DHT22;4807;48.024;11.726;2023-06-10T17:30:53;25.90;67.40
9537;DHT22;4807;48.024;11.726;2023-06-10T17:34:02;24.60;70.80
9537;DHT22;4807;48.024;11.726;2023-06-10T17:37:11;23.50;74.10
9537;DHT22;4807;48.024;11.726;2023-06-10T17:40:19;22.90;76.10
9537;DHT22;4807;48.024;11.726;2023-06-10T17:43:27;22.40;77.60
9537;DHT22;4807;48.024;11.726;2023-06-10T17:46:35;22.10;78.50
9537;DHT22;4807;48.024;11.726;2023-06-10T17:49:45;21.90;79.30
9537;DHT22;4807;48.024;11.726;2023-06-10T17:52:53;21.80;79.60
9537;DHT22;4807;48.024;11.726;2023-06-10T17:56:02;21.80;79.70
9537;DHT22;4807;48.024;11.726;2023-06-10T17:59:10;21.80;79.70
9537;DHT22;4807;48.024;11.726;2023-06-10T18:02:18;21.80;79.80
9537;DHT22;4807;48.024;11.726;2023-06-10T18:05:28;21.90;80.60
9537;DHT22;4807;48.024;11.726;2023-06-10T18:08:38;21.80;81.20
9537;DHT22;4807;48.024;11.726;2023-06-10T18:11:46;21.80;82.00
9537;DHT22;4807;48.024;11.726;2023-06-10T18:14:54;21.70;83.60
9537;DHT22;4807;48.024;11.726;2023-06-10T18:18:03;22.90;85.90
9537;DHT22;4807;48.024;11.726;2023-06-10T18:21:14;21.50;85.30
9537;DHT22;4807;48.024;11.726;2023-06-10T18:24:23;21.30;86.50
9537;DHT22;4807;48.024;11.726;2023-06-10T18:27:31;21.10;87.80
9537;DHT22;4807;48.024;11.726;2023-06-10T18:30:41;20.90;88.80
9537;DHT22;4807;48.024;11.726;2023-06-10T18:37:37;20.50;90.50
9537;DHT22;4807;48.024;11.726;2023-06-10T18:40:46;20.30;90.70
9537;DHT22;4807;48.024;11.726;2023-06-10T18:43:55;20.20;91.10
9537;DHT22;4807;48.024;11.726;2023-06-10T18:47:07;19.90;91.50
9537;DHT22;4807;48.024;11.726;2023-06-10T18:50:16;19.90;91.80
9537;DHT22;4807;48.024;11.726;2023-06-10T18:53:25;19.80;91.90
9537;DHT22;4807;48.024;11.726;2023-06-10T18:56:34;19.80;92.00
9537;DHT22;4807;48.024;11.726;2023-06-10T18:59:42;19.70;92.30
9537;DHT22;4807;48.024;11.726;2023-06-10T19:02:51;19.60;92.50
9537;DHT22;4807;48.024;11.726;2023-06-10T19:05:59;19.50;92.70
9537;DHT22;4807;48.024;11.726;2023-06-10T19:09:09;19.40;93.00
9537;DHT22;4807;48.024;11.726;2023-06-10T19:12:18;19.30;93.30
9537;DHT22;4807;48.024;11.726;2023-06-10T19:15:28;18.90;93.60
9537;DHT22;4807;48.024;11.726;2023-06-10T19:18:36;19.00;93.90
9537;DHT22;4807;48.024;11.726;2023-06-10T19:21:45;18.80;94.20
9537;DHT22;4807;48.024;11.726;2023-06-10T19:25:03;18.70;94.80
9537;DHT22;4807;48.024;11.726;2023-06-10T19:28:13;18.60;95.00
9537;DHT22;4807;48.024;11.726;2023-06-10T19:31:22;18.50;95.20
9537;DHT22;4807;48.024;11.726;2023-06-10T19:39:12;18.30;96.00
9537;DHT22;4807;48.024;11.726;2023-06-10T19:42:50;18.20;96.60
9537;DHT22;4807;48.024;11.726;2023-06-10T19:45:58;18.10;96.90
9537;DHT22;4807;48.024;11.726;2023-06-10T19:49:07;18.10;97.00
9537;DHT22;4807;48.024;11.726;2023-06-10T19:52:15;18.10;97.40
9537;DHT22;4807;48.024;11.726;2023-06-10T19:55:24;18.00;97.80
9537;DHT22;4807;48.024;11.726;2023-06-10T19:58:36;18.00;98.10
9537;DHT22;4807;48.024;11.726;2023-06-10T20:01:47;17.90;98.40
9537;DHT22;4807;48.024;11.726;2023-06-10T20:04:58;17.80;99.00
9537;DHT22;4807;48.024;11.726;2023-06-10T20:08:09;19.40;99.90
9537;DHT22;4807;48.024;11.726;2023-06-10T20:11:18;17.70;99.90
9537;DHT22;4807;48.024;11.726;2023-06-10T20:14:29;17.70;99.90
9537;DHT22;4807;48.024;11.726;2023-06-10T20:17:38;17.60;99.90
9537;DHT22;4807;48.024;11.726;2023-06-10T20:20:46;17.50;99.90
9537;DHT22;4807;48.024;11.726;2023-06-10T20:33:15;17.20;99.90
9537;DHT22;4807;48.024;11.726;2023-06-10T20:36:28;17.20;99.90
9537;DHT22;4807;48.024;11.726;2023-06-10T20:44:03;16.80;99.90
9537;DHT22;4807;48.024;11.726;2023-06-10T20:47:11;16.90;99.90
9537;DHT22;4807;48.024;11.726;2023-06-10T20:50:21;17.40;99.90
9537;DHT22;4807;48.024;11.726;2023-06-10T20:53:30;16.60;99.90
9537;DHT22;4807;48.024;11.726;2023-06-10T20:56:38;16.50;99.90
9537;DHT22;4807;48.024;11.726;2023-06-10T20:59:48;16.50;99.90